Česky Dansk Deutsch English Español Suomi Français Magyar Italiano Nederlands norsk Polski Português svenska Türkçe

 

Het Weer

Dolny Hricov (Slowakije)

07:00, 21 augustus 2016 (GMT)

NWNNE
WE
SWSSE
Home            
Dolny Hricov Prievidza Ostrava / Mosnov Sliac Sliac Holesov Kunovice Piestany Piestany Nitra Katowice Poprad / Tatry Krakow Lucenec Brno / Turany Bratislava Ivanka Budapest Met Center Wien / Schwechat-Flughafen Budaors Kosice Kosice, Barca Miskolc Budapest / Ferihegy

Om een weerknop op uw website of weblog te plaatsen, copieer onderstaande code en plak die in uw pagina. In het eerste vakje staat HTML-code, in het tweede vakje UBB-code.


Add to Google

Details

Wind speed:1 bf, 3 kn, 1.5 m/s, 3.5 miles/h, 5.6 km/h
Wind direction:ENE, 070°
Visibility:Greater than 10000 m, 10 km, 32800 ft, 6.2 miles
Clouds:Ein wenig bewölkt at 5000 ft, 1524 m
Temperature:17°C, 63°F
Dew-point:16°C, 61°F
Atmospheric pressure:1017 hPa, 762.8 mmHg, 30.03 inHg, 1.004 atm
Relative humidity:93.8 %
METAR:LZZI 210700Z 07003KT 9999 FEW050 17/16 Q1017

Snelkoppelingen

Actuele weersinformatie van de hele wereld. Voeg locaties toe met het plus (+) symbool. Deze snelkoppelingen kunnen worden toegevoegd aan Google.

Lid van de Technetium groep

website free tracking
StatCounter NetStat W3C Validator

28-05-2020 05:07:14
astro.technetium.be money.technetium.be phote.technetium.be tafeltennistafel.technetium.be www.ligfiets.net